Ventura — ZCDT2 — position and weather

sailwx.info

Track history (hours):
 
Tides and Currents Weather Stations Pressure Air Temp Water Temp Dewpoint Dewpoint Depression Visibility Wind Speed Wind Dir Waves Ship Positions

Ventura

Last reported at 2017-Jun-23 19:00 UTC. Time now 2017-Jun-23 18:58 UTC.
Position N 50°43' W 001°00'.

Length 289 m; draft 8.6 m.

Type: Passenger vessel. MMSI: 310562000.

Date/timePositionNaut miles runAvg speedWind from/ knotsBaromVisibWave heightAir tempDewpointWater temp
2017-Jun-23 19:00N 50°43' W 001°00'816.7
2017-Jun-23 18:31N 50°46' W 001°12'510.5
2017-Jun-23 18:00N 50°49' W 001°18'5 9.5
2017-Jun-23 17:30N 50°53' W 001°24'1 1.3
2017-Jun-23 16:58N 50°53' W 001°24'0 0.0
2017-Jun-23 16:28N 50°53' W 001°24'0 0.0
2017-Jun-23 15:58N 50°53' W 001°24'0 0.0
2017-Jun-23 15:28N 50°53' W 001°24'0 0.0
2017-Jun-23 14:55N 50°53' W 001°24'0 0.0
2017-Jun-23 13:58N 50°53' W 001°24'0 0.0
2017-Jun-23 13:28N 50°53' W 001°24'0 0.0
2017-Jun-23 12:58N 50°53' W 001°24'0 0.0
2017-Jun-23 12:28N 50°53' W 001°24'0 0.0
2017-Jun-23 11:58N 50°53' W 001°24'0 0.0
2017-Jun-23 11:28N 50°53' W 001°24'0 0.0
2017-Jun-23 10:58N 50°53' W 001°24'0 0.0
2017-Jun-23 10:28N 50°53' W 001°24'0 0.0
2017-Jun-23 09:58N 50°53' W 001°24'0 0.0
2017-Jun-23 09:28N 50°53' W 001°24'0 0.0
2017-Jun-23 08:58N 50°53' W 001°24'0 0.0
2017-Jun-23 08:28N 50°53' W 001°24'0 0.0
2017-Jun-23 07:58N 50°53' W 001°24'0 0.0
2017-Jun-23 07:28N 50°53' W 001°24'0 0.0
2017-Jun-23 06:58N 50°53' W 001°24'0 0.0
2017-Jun-23 06:28N 50°53' W 001°24'0 0.0
2017-Jun-23 05:58N 50°53' W 001°24'0 0.0
2017-Jun-23 05:28N 50°53' W 001°24'0 0.4
2017-Jun-23 05:00N 50°53' W 001°24'3 6.5
2017-Jun-23 04:31N 50°51' W 001°20'4 8.1
2017-Jun-23 04:01N 50°47' W 001°19'713.5
2017-Jun-23 03:31N 50°46' W 001°08'815.3
2017-Jun-23 03:01N 50°42' W 000°58'612.2
2017-Jun-23 02:31N 50°36' W 000°60'713.3
2017-Jun-23 02:00N 50°31' W 001°07'611.5
2017-Jun-23 01:30N 50°28' W 001°15'611.2
2017-Jun-23 01:00N 50°26' W 001°23'610.7
2017-Jun-23 00:27N 50°23' W 001°31'510.1
2017-Jun-22 23:54N 50°21' W 001°39'410.0
2017-Jun-22 23:29N 50°21' W 001°46'510.6
2017-Jun-22 23:00N 50°19' W 001°54'611.3
2017-Jun-22 22:26N 50°17' W 002°03'512.2
2017-Jun-22 22:00N 50°15' W 002°10'712.3
2017-Jun-22 21:24N 50°07' W 002°08'612.5
2017-Jun-22 20:57N 50°02' W 002°06'812.3
2017-Jun-22 20:17N 49°54' W 002°03'412.2
2017-Jun-22 19:56N 49°50' W 002°03'914.3
2017-Jun-22 19:16N 49°40' W 002°06'414.1
2017-Jun-22 18:58N 49°36' W 002°08'714.1
2017-Jun-22 18:30N 49°30' W 002°11'814.4
2017-Jun-22 17:58N 49°23' W 002°16'10 9.5
2017-Jun-22 16:54N 49°28' W 002°30'0 0.0
2017-Jun-22 16:12N 49°28' W 002°30'0 0.0
2017-Jun-22 14:15N 49°28' W 002°30'0 0.0
2017-Jun-22 11:51N 49°28' W 002°30'0 0.0
2017-Jun-22 10:15N 49°28' W 002°30'0 0.2
2017-Jun-22 10:00N 49°28' W 002°30'0 0.0
2017-Jun-22 08:03N 49°28' W 002°30'0 0.0
2017-Jun-22 07:51N 49°28' W 002°30'0 0.0
2017-Jun-22 07:24N 49°28' W 002°30'0 0.0
2017-Jun-22 06:57N 49°28' W 002°30'0 0.0
2017-Jun-22 06:30N 49°28' W 002°30'1 1.4
2017-Jun-22 05:59N 49°27' W 002°30'4 9.3
2017-Jun-22 05:31N 49°23' W 002°31'612.6
2017-Jun-22 05:00N 49°20' W 002°40'612.4
2017-Jun-22 04:30N 49°18' W 002°49'612.5
2017-Jun-22 04:00N 49°16' W 002°58'612.7
2017-Jun-22 03:30N 49°14' W 003°07'612.8
2017-Jun-22 03:01N 49°12' W 003°16'713.9
2017-Jun-22 02:31N 49°10' W 003°27'714.6
2017-Jun-22 02:00N 49°07' W 003°37'714.8
2017-Jun-22 01:31N 49°05' W 003°48'814.9
2017-Jun-22 01:00N 49°02' W 003°58'714.6
2017-Jun-22 00:31N 48°60' W 004°09'714.3
2017-Jun-22 00:01N 48°57' W 004°19'714.2
2017-Jun-21 23:30N 48°54' W 004°29'713.6
2017-Jun-21 23:00N 48°52' W 004°39'713.2
2017-Jun-21 22:30N 48°49' W 004°48'613.1
2017-Jun-21 22:00N 48°46' W 004°57'713.6
2017-Jun-21 21:30N 48°43' W 005°06'713.3
2017-Jun-21 21:00N 48°39' W 005°14'713.4
2017-Jun-21 20:30N 48°34' W 005°20'612.8
2017-Jun-21 20:00N 48°28' W 005°25'612.6
2017-Jun-21 19:30N 48°22' W 005°26'612.4
2017-Jun-21 19:00N 48°16' W 005°27'612.9
2017-Jun-21 18:30N 48°09' W 005°26'612.6
2017-Jun-21 18:00N 48°03' W 005°25'611.5
2017-Jun-21 17:30N 47°57' W 005°24'612.4
2017-Jun-21 17:00N 47°51' W 005°22'713.4
2017-Jun-21 16:30N 47°45' W 005°19'713.5
2017-Jun-21 16:00N 47°38' W 005°16'713.6
2017-Jun-21 15:30N 47°32' W 005°13'713.4
2017-Jun-21 15:00N 47°26' W 005°09'1413.9
2017-Jun-21 14:01N 47°13' W 005°02'714.1
2017-Jun-21 13:31N 47°06' W 004°59'713.9
2017-Jun-21 13:00N 46°59' W 004°55'713.6
2017-Jun-21 12:30N 46°53' W 004°52'713.7
2017-Jun-21 12:00N 46°46' W 004°49'714.2
2017-Jun-21 11:30N 46°40' W 004°45'713.8
2017-Jun-21 11:00N 46°33' W 004°42'713.7
2017-Jun-21 10:31N 46°27' W 004°38'714.7
2017-Jun-21 10:01N 46°20' W 004°35'714.4
2017-Jun-21 09:31N 46°13' W 004°31'713.9
2017-Jun-21 09:01N 46°07' W 004°28'714.0
2017-Jun-21 08:31N 45°60' W 004°24'713.9
2017-Jun-21 08:00N 45°53' W 004°21'713.9
2017-Jun-21 07:30N 45°47' W 004°18'713.8
2017-Jun-21 07:00N 45°40' W 004°14'714.1
2017-Jun-21 06:31N 45°34' W 004°11'714.1
2017-Jun-21 06:01N 45°27' W 004°08'3195.2
2017-Jun-21 06:00N 45°24' W 004°06'4 7.5 1018.6 5.4 21.216.819.2
2017-Jun-21 05:30N 45°21' W 004°04'713.8
2017-Jun-21 05:01N 45°14' W 004°01'714.1
2017-Jun-21 04:30N 45°07' W 003°58'713.9
2017-Jun-21 04:01N 45°01' W 003°54'714.0
2017-Jun-21 03:31N 44°54' W 003°51'714.2
2017-Jun-21 03:01N 44°48' W 003°48'713.9
2017-Jun-21 02:30N 44°41' W 003°44'713.9
2017-Jun-21 02:01N 44°35' W 003°40'713.6
2017-Jun-21 01:31N 44°29' W 003°36'713.6
2017-Jun-21 01:01N 44°22' W 003°33'713.9
2017-Jun-21 00:31N 44°15' W 003°31'713.8
2017-Jun-21 00:00N 44°09' W 003°28'713.7
2017-Jun-20 23:30N 44°02' W 003°25'713.7
2017-Jun-20 23:01N 43°56' W 003°22'714.0
2017-Jun-20 22:30N 43°49' W 003°18'713.7
2017-Jun-20 22:00N 43°43' W 003°15'714.0
2017-Jun-20 21:30N 43°36' W 003°12'713.9
2017-Jun-20 21:00N 43°30' W 003°08'612.9
2017-Jun-20 20:30N 43°24' W 003°05'32 1.8
2017-Jun-20 02:13N 43°55' W 002°57'414.5
2017-Jun-20 01:56N 43°59' W 002°55'714.5
2017-Jun-20 01:27N 44°05' W 002°51'614.4
2017-Jun-20 01:00N 44°11' W 002°47'714.6
2017-Jun-20 00:31N 44°18' W 002°43'714.6
2017-Jun-20 00:01N 44°25' W 002°39'1014.5
2017-Jun-19 23:20N 44°34' W 002°34'514.3
2017-Jun-19 23:00N 44°38' W 002°31'713.8
2017-Jun-19 22:30N 44°45' W 002°28'713.7
2017-Jun-19 22:00N 44°51' W 002°24'713.8
2017-Jun-19 21:30N 44°57' W 002°20'714.1
2017-Jun-19 21:01N 45°04' W 002°16'913.8
2017-Jun-19 20:22N 45°12' W 002°11'913.7
2017-Jun-19 19:45N 45°20' W 002°07'613.8
2017-Jun-19 19:21N 45°25' W 002°04'513.8
2017-Jun-19 19:00N 45°29' W 002°01'713.7
2017-Jun-19 18:31N 45°35' W 001°57'713.9
2017-Jun-19 18:01N 45°42' W 001°54'813.7
2017-Jun-19 17:27N 45°49' W 001°49'614.1
2017-Jun-19 17:00N 45°55' W 001°46'674282.6
2017-Jun-19 17:00N 44°48' W 001°48'73150.9 1016.810.8
2017-Jun-19 16:30N 46°01' W 001°42'713.8
2017-Jun-19 16:00N 46°07' W 001°37'714.3
2017-Jun-19 15:30N 46°07' W 001°26'714.1
2017-Jun-19 15:00N 46°06' W 001°16'4 3.7
2017-Jun-19 13:58N 46°10' W 001°14'0 0.0
2017-Jun-19 13:28N 46°10' W 001°14'0 0.0
2017-Jun-19 12:55N 46°10' W 001°14'0 0.0
2017-Jun-19 12:28N 46°10' W 001°14'0 0.0
2017-Jun-19 11:58N 46°10' W 001°14'0 0.0
2017-Jun-19 11:25N 46°10' W 001°14'0 0.0
2017-Jun-19 10:58N 46°10' W 001°14'0 0.0
2017-Jun-19 10:28N 46°10' W 001°14'0 0.0
2017-Jun-19 09:58N 46°10' W 001°14'0 0.0
2017-Jun-19 09:28N 46°10' W 001°14'0 0.0
2017-Jun-19 08:58N 46°10' W 001°14'0 0.0
2017-Jun-19 08:28N 46°10' W 001°14'0 0.0
2017-Jun-19 07:58N 46°10' W 001°14'0 0.0
2017-Jun-19 07:28N 46°10' W 001°14'0 0.0
2017-Jun-19 06:58N 46°10' W 001°14'0 0.0
2017-Jun-19 06:28N 46°10' W 001°14'0 0.0
2017-Jun-19 05:58N 46°10' W 001°14'0 0.0
2017-Jun-19 05:28N 46°10' W 001°14'0 0.6
2017-Jun-19 05:00N 46°09' W 001°15'4 7.7
2017-Jun-19 04:30N 46°06' W 001°18'612.4
2017-Jun-19 04:00N 46°07' W 001°26'713.2
2017-Jun-19 03:30N 46°07' W 001°36'713.6
2017-Jun-19 03:00N 46°09' W 001°45'714.1
2017-Jun-19 02:30N 46°13' W 001°54'714.1
2017-Jun-19 02:00N 46°17' W 002°03'714.1
2017-Jun-19 01:30N 46°21' W 002°11'714.2
2017-Jun-19 01:00N 46°24' W 002°20'714.3
2017-Jun-19 00:30N 46°28' W 002°29'714.2
2017-Jun-19 00:00N 46°32' W 002°38'714.4
2017-Jun-18 23:30N 46°36' W 002°46'714.5
2017-Jun-18 23:00N 46°40' W 002°55'714.3
2017-Jun-18 22:30N 46°44' W 003°03'714.0
2017-Jun-18 22:00N 46°48' W 003°12'714.1
2017-Jun-18 21:30N 46°52' W 003°20'714.5
2017-Jun-18 21:00N 46°58' W 003°27'714.7
2017-Jun-18 20:30N 47°02' W 003°36'714.4
2017-Jun-18 20:00N 47°06' W 003°45'814.4
2017-Jun-18 19:29N 47°11' W 003°53'714.4
2017-Jun-18 19:00N 47°15' W 004°01'714.4
2017-Jun-18 18:30N 47°19' W 004°10'1613.9
2017-Jun-18 17:20N 47°29' W 004°29'514.1
2017-Jun-18 17:00N 47°32' W 004°34'814.0
2017-Jun-18 16:28N 47°37' W 004°43'613.9
2017-Jun-18 16:00N 47°40' W 004°51'714.1
2017-Jun-18 15:30N 47°45' W 004°59'714.6
2017-Jun-18 15:01N 47°49' W 005°08'1413.7
2017-Jun-18 14:00N 47°59' W 005°22'715.3
2017-Jun-18 13:30N 48°07' W 005°24'1615.1
2017-Jun-18 12:26N 48°23' W 005°29'613.9
2017-Jun-18 12:00N 48°28' W 005°28'714.0
2017-Jun-18 11:30N 48°34' W 005°21'713.5
2017-Jun-18 11:01N 48°39' W 005°14'612.9
2017-Jun-18 10:30N 48°43' W 005°08'612.5
2017-Jun-18 10:00N 48°48' W 005°01'612.7
2017-Jun-18 09:30N 48°51' W 004°53'612.7
2017-Jun-18 09:00N 48°55' W 004°45'712.9
2017-Jun-18 08:30N 48°59' W 004°37'713.1
2017-Jun-18 08:00N 49°03' W 004°29'713.4
2017-Jun-18 07:29N 49°08' W 004°22'713.6
2017-Jun-18 06:59N 49°12' W 004°14'814.1
2017-Jun-18 06:26N 49°17' W 004°04'715.5
2017-Jun-18 06:00N 49°18' W 003°54'526.9 090 / 201026.810.8 18.012.715.2
2017-Jun-18 05:48N 49°23' W 003°54'614.5
2017-Jun-18 05:23N 49°27' W 003°47'614.7
2017-Jun-18 04:59N 49°31' W 003°41'814.7
2017-Jun-18 04:26N 49°38' W 003°33'614.4
2017-Jun-18 04:00N 49°42' W 003°27'713.9
2017-Jun-18 03:30N 49°46' W 003°18'713.8
2017-Jun-18 03:00N 49°50' W 003°09'713.5
2017-Jun-18 02:30N 49°55' W 003°02'713.1
2017-Jun-18 02:00N 49°59' W 002°53'713.1
2017-Jun-18 01:30N 50°01' W 002°43'612.8
2017-Jun-18 01:00N 50°03' W 002°34'612.7
2017-Jun-18 00:30N 50°04' W 002°25'612.5
2017-Jun-18 00:00N 50°08' W 002°17'612.8
2017-Jun-17 23:30N 50°12' W 002°09'713.1
2017-Jun-17 23:00N 50°15' W 001°60'713.5
2017-Jun-17 22:30N 50°18' W 001°50'713.7
2017-Jun-17 22:00N 50°21' W 001°41'713.8
2017-Jun-17 21:30N 50°24' W 001°31'714.3
2017-Jun-17 21:00N 50°26' W 001°20'714.6
2017-Jun-17 20:30N 50°29' W 001°10'714.0
2017-Jun-17 20:00N 50°33' W 001°01'713.9
2017-Jun-17 19:30N 50°40' W 000°58'511.0
2017-Jun-17 19:00N 50°44' W 001°04'714.7
2017-Jun-17 18:30N 50°46' W 001°15'4 9.0
2017-Jun-17 18:00N 50°50' W 001°19'4 8.8
2017-Jun-17 17:30N 50°53' W 001°24'0 1.0
2017-Jun-17 17:00N 50°53' W 001°24'0 0.0
2017-Jun-17 16:30N 50°53' W 001°24'0 0.0
2017-Jun-17 16:00N 50°53' W 001°24'0 0.0
2017-Jun-17 15:30N 50°53' W 001°24'0 0.0
2017-Jun-17 15:00N 50°53' W 001°24'0 0.0
2017-Jun-17 14:00N 50°53' W 001°24'0 0.0
2017-Jun-17 13:30N 50°53' W 001°24'0 0.0
2017-Jun-17 13:00N 50°53' W 001°24'0 0.0
2017-Jun-17 12:30N 50°53' W 001°24'0 0.0
2017-Jun-17 12:00N 50°53' W 001°24'0 0.0
2017-Jun-17 11:30N 50°53' W 001°24'0 0.0
2017-Jun-17 11:00N 50°53' W 001°24'0 0.0
2017-Jun-17 10:30N 50°53' W 001°24'0 0.0
2017-Jun-17 10:00N 50°53' W 001°24'0 0.0
2017-Jun-17 09:30N 50°53' W 001°24'0 0.0
2017-Jun-17 09:00N 50°53' W 001°24'0 0.0
2017-Jun-17 08:30N 50°53' W 001°24'0 0.0
2017-Jun-17 08:00N 50°53' W 001°24'0 0.0
2017-Jun-17 07:30N 50°53' W 001°24'0 0.0
2017-Jun-17 07:00N 50°53' W 001°24'0 0.0
2017-Jun-17 06:30N 50°53' W 001°24'0 0.0
2017-Jun-17 06:00N 50°53' W 001°24'0 0.0
2017-Jun-17 05:30N 50°53' W 001°24'0 0.0
2017-Jun-17 05:00N 50°53' W 001°24'0 1.0
2017-Jun-17 04:30N 50°53' W 001°24'4 8.3
2017-Jun-17 04:00N 50°50' W 001°19'4 7.7
2017-Jun-17 03:30N 50°47' W 001°17'816.3
2017-Jun-17 03:01N 50°44' W 001°04'611.2
2017-Jun-17 02:30N 50°40' W 000°59'713.9
2017-Jun-17 02:00N 50°33' W 001°01'1020.9
2017-Jun-17 01:30N 50°28' W 001°15'1121.1
2017-Jun-17 01:01N 50°25' W 001°31'1121.1
2017-Jun-17 00:30N 50°22' W 001°47'1121.2
2017-Jun-17 00:00N 50°17' W 002°02'918.6
2017-Jun-16 23:30N 50°09' W 002°08'1019.5
2017-Jun-16 23:01N 49°59' W 002°12'1020.3
2017-Jun-16 22:30N 49°56' W 002°26'1020.0
2017-Jun-16 22:00N 49°53' W 002°41'1019.5
2017-Jun-16 21:30N 49°50' W 002°56'1019.2
2017-Jun-16 21:00N 49°44' W 003°07'1019.0
2017-Jun-16 20:31N 49°38' W 003°19'1019.1
2017-Jun-16 20:00N 49°33' W 003°31'1019.0
2017-Jun-16 19:30N 49°27' W 003°43'918.8
2017-Jun-16 19:00N 49°21' W 003°54'918.6
2017-Jun-16 18:30N 49°16' W 004°06'918.5
2017-Jun-16 18:00N 49°10' W 004°17'918.3
2017-Jun-16 17:30N 49°05' W 004°28'918.1
2017-Jun-16 17:00N 48°59' W 004°39'2154.0
2017-Jun-16 17:00N 49°00' W 004°36'1123.1 310 / 16 10.8 15.813.515.7
2017-Jun-16 16:30N 48°54' W 004°50'917.8
2017-Jun-16 16:00N 48°48' W 005°01'917.5
2017-Jun-16 15:30N 48°42' W 005°10'817.1
2017-Jun-16 15:00N 48°35' W 005°18'918.2
2017-Jun-16 14:30N 48°28' W 005°27'1918.7
2017-Jun-16 13:30N 48°12' W 005°41'1018.5
2017-Jun-16 12:59N 48°04' W 005°48'918.5
2017-Jun-16 12:30N 47°56' W 005°55'918.4
2017-Jun-16 12:01N 47°48' W 006°02'1018.3
2017-Jun-16 11:29N 47°40' W 006°09'1218.4
2017-Jun-16 10:50N 47°29' W 006°18'618.4
2017-Jun-16 10:30N 47°24' W 006°22'1019.1
2017-Jun-16 10:00N 47°16' W 006°29'1118.8
2017-Jun-16 09:25N 47°06' W 006°37'819.1
2017-Jun-16 09:00N 46°60' W 006°43'31119.4
2017-Jun-15 17:00N 42°18' W 009°48'7218.0 010 / 301021.710.8 17.514.917.5
2017-Jun-15 13:00N 41°06' W 009°48'4620.3 350 / 311018.8 5.4 18.015.518.0
2017-Jun-15 10:44N 40°20' W 009°50'419.1
2017-Jun-15 10:31N 40°16' W 009°50'1019.0
2017-Jun-15 10:00N 40°06' W 009°50'1019.7
2017-Jun-15 09:31N 39°57' W 009°51'1019.6
2017-Jun-15 09:00N 39°47' W 009°51'1019.1
2017-Jun-15 08:30N 39°37' W 009°51'919.0
2017-Jun-15 08:00N 39°28' W 009°52'1019.4
2017-Jun-15 07:30N 39°18' W 009°51'1019.6
2017-Jun-15 07:00N 39°08' W 009°51'1019.3
2017-Jun-15 06:31N 38°59' W 009°51'1019.6
2017-Jun-15 06:00N 38°49' W 009°51'1019.3
2017-Jun-15 05:30N 38°39' W 009°50'1019.3
2017-Jun-15 05:01N 38°30' W 009°48'1019.1
2017-Jun-15 04:30N 38°20' W 009°46'918.8
2017-Jun-15 04:00N 38°11' W 009°43'918.8
2017-Jun-15 03:30N 38°02' W 009°40'918.2
2017-Jun-15 03:00N 37°53' W 009°37'918.2
2017-Jun-15 02:30N 37°44' W 009°34'1018.7
2017-Jun-15 01:58N 37°35' W 009°30'1418.5
2017-Jun-15 01:13N 37°21' W 009°26'1119.0
2017-Jun-15 00:39N 37°11' W 009°24'618.9
2017-Jun-15 00:19N 37°05' W 009°22'619.4
2017-Jun-15 00:00N 36°59' W 009°21'1519.1
2017-Jun-14 23:14N 36°47' W 009°10'718.9
2017-Jun-14 22:51N 36°43' W 009°02'819.4
2017-Jun-14 22:27N 36°41' W 008°53'919.1
2017-Jun-14 22:00N 36°38' W 008°43'919.1
2017-Jun-14 21:31N 36°35' W 008°32'1019.4
2017-Jun-14 21:00N 36°32' W 008°20'919.0
2017-Jun-14 20:30N 36°30' W 008°09'919.0
2017-Jun-14 20:00N 36°27' W 007°57'1019.2
2017-Jun-14 19:30N 36°23' W 007°47'1019.1
2017-Jun-14 19:00N 36°20' W 007°35'1019.2
2017-Jun-14 18:30N 36°17' W 007°24'1319.8
2017-Jun-14 17:51N 36°13' W 007°09'719.5
2017-Jun-14 17:30N 36°11' W 007°01'1019.2
2017-Jun-14 17:00N 36°08' W 006°49'2462.7
2017-Jun-14 17:00N 36°06' W 006°48'1017.1 290 / 171017.010.8 22.017.221.8
2017-Jun-14 16:24N 36°04' W 006°36'4718.7
2017-Jun-14 13:52N 35°58' W 005°38'615.2
2017-Jun-14 13:30N 35°59' W 005°31'612.1
2017-Jun-14 13:00N 36°02' W 005°24'714.2
2017-Jun-14 12:30N 36°09' W 005°22'0 0.1
2017-Jun-14 05:34N 36°09' W 005°22'0 1.3
2017-Jun-14 05:29N 36°09' W 005°22'3 6.9
2017-Jun-14 05:01N 36°05' W 005°22'713.5
2017-Jun-14 04:30N 36°06' W 005°13'1120.0
2017-Jun-14 03:58N 36°12' W 005°02'14119.6
2017-Jun-13 20:45N 36°27' W 002°08'619.6
2017-Jun-13 20:28N 36°30' W 002°01'2819.1
2017-Jun-13 19:01N 36°50' W 001°38'120.5
2017-Jun-13 18:59N 36°50' W 001°37'  
Track history (hours):
 
Tides and Currents Weather Stations Pressure Air Temp Water Temp Dewpoint Dewpoint Depression Visibility Wind Speed Wind Dir Waves Ship Positions

Ventura

Last reported at 2017-Jun-23 19:00 UTC. Time now 2017-Jun-23 18:58 UTC.
Position N 50°43' W 001°00'.

Length 289 m; draft 8.6 m.

Type: Passenger vessel. MMSI: 310562000.

Date/timePositionNaut miles runAvg speedWind from/ knotsBaromVisibWave heightAir tempDewpointWater temp
2017-Jun-23 19:00N 50°43' W 001°00'816.7
2017-Jun-23 18:31N 50°46' W 001°12'510.5
2017-Jun-23 18:00N 50°49' W 001°18'5 9.5
2017-Jun-23 17:30N 50°53' W 001°24'1 1.3
2017-Jun-23 16:58N 50°53' W 001°24'0 0.0
2017-Jun-23 16:28N 50°53' W 001°24'0 0.0
2017-Jun-23 15:58N 50°53' W 001°24'0 0.0
2017-Jun-23 15:28N 50°53' W 001°24'0 0.0
2017-Jun-23 14:55N 50°53' W 001°24'0 0.0
2017-Jun-23 13:58N 50°53' W 001°24'0 0.0
2017-Jun-23 13:28N 50°53' W 001°24'0 0.0
2017-Jun-23 12:58N 50°53' W 001°24'0 0.0
2017-Jun-23 12:28N 50°53' W 001°24'0 0.0
2017-Jun-23 11:58N 50°53' W 001°24'0 0.0
2017-Jun-23 11:28N 50°53' W 001°24'0 0.0
2017-Jun-23 10:58N 50°53' W 001°24'0 0.0
2017-Jun-23 10:28N 50°53' W 001°24'0 0.0
2017-Jun-23 09:58N 50°53' W 001°24'0 0.0
2017-Jun-23 09:28N 50°53' W 001°24'0 0.0
2017-Jun-23 08:58N 50°53' W 001°24'0 0.0
2017-Jun-23 08:28N 50°53' W 001°24'0 0.0
2017-Jun-23 07:58N 50°53' W 001°24'0 0.0
2017-Jun-23 07:28N 50°53' W 001°24'0 0.0
2017-Jun-23 06:58N 50°53' W 001°24'0 0.0
2017-Jun-23 06:28N 50°53' W 001°24'0 0.0
2017-Jun-23 05:58N 50°53' W 001°24'0 0.0
2017-Jun-23 05:28N 50°53' W 001°24'0 0.4
2017-Jun-23 05:00N 50°53' W 001°24'3 6.5
2017-Jun-23 04:31N 50°51' W 001°20'4 8.1
2017-Jun-23 04:01N 50°47' W 001°19'713.5
2017-Jun-23 03:31N 50°46' W 001°08'815.3
2017-Jun-23 03:01N 50°42' W 000°58'612.2
2017-Jun-23 02:31N 50°36' W 000°60'713.3
2017-Jun-23 02:00N 50°31' W 001°07'611.5
2017-Jun-23 01:30N 50°28' W 001°15'611.2
2017-Jun-23 01:00N 50°26' W 001°23'610.7
2017-Jun-23 00:27N 50°23' W 001°31'510.1
2017-Jun-22 23:54N 50°21' W 001°39'410.0
2017-Jun-22 23:29N 50°21' W 001°46'510.6
2017-Jun-22 23:00N 50°19' W 001°54'611.3
2017-Jun-22 22:26N 50°17' W 002°03'512.2
2017-Jun-22 22:00N 50°15' W 002°10'712.3
2017-Jun-22 21:24N 50°07' W 002°08'612.5
2017-Jun-22 20:57N 50°02' W 002°06'812.3
2017-Jun-22 20:17N 49°54' W 002°03'412.2
2017-Jun-22 19:56N 49°50' W 002°03'914.3
2017-Jun-22 19:16N 49°40' W 002°06'414.1
2017-Jun-22 18:58N 49°36' W 002°08'714.1
2017-Jun-22 18:30N 49°30' W 002°11'814.4
2017-Jun-22 17:58N 49°23' W 002°16'10 9.5
2017-Jun-22 16:54N 49°28' W 002°30'0 0.0
2017-Jun-22 16:12N 49°28' W 002°30'0 0.0
2017-Jun-22 14:15N 49°28' W 002°30'0 0.0
2017-Jun-22 11:51N 49°28' W 002°30'0 0.0
2017-Jun-22 10:15N 49°28' W 002°30'0 0.2
2017-Jun-22 10:00N 49°28' W 002°30'0 0.0
2017-Jun-22 08:03N 49°28' W 002°30'0 0.0
2017-Jun-22 07:51N 49°28' W 002°30'0 0.0
2017-Jun-22 07:24N 49°28' W 002°30'0 0.0
2017-Jun-22 06:57N 49°28' W 002°30'0 0.0
2017-Jun-22 06:30N 49°28' W 002°30'1 1.4
2017-Jun-22 05:59N 49°27' W 002°30'4 9.3
2017-Jun-22 05:31N 49°23' W 002°31'612.6
2017-Jun-22 05:00N 49°20' W 002°40'612.4
2017-Jun-22 04:30N 49°18' W 002°49'612.5
2017-Jun-22 04:00N 49°16' W 002°58'612.7
2017-Jun-22 03:30N 49°14' W 003°07'612.8
2017-Jun-22 03:01N 49°12' W 003°16'713.9
2017-Jun-22 02:31N 49°10' W 003°27'714.6
2017-Jun-22 02:00N 49°07' W 003°37'714.8
2017-Jun-22 01:31N 49°05' W 003°48'814.9
2017-Jun-22 01:00N 49°02' W 003°58'714.6
2017-Jun-22 00:31N 48°60' W 004°09'714.3
2017-Jun-22 00:01N 48°57' W 004°19'714.2
2017-Jun-21 23:30N 48°54' W 004°29'713.6
2017-Jun-21 23:00N 48°52' W 004°39'713.2
2017-Jun-21 22:30N 48°49' W 004°48'613.1
2017-Jun-21 22:00N 48°46' W 004°57'713.6
2017-Jun-21 21:30N 48°43' W 005°06'713.3
2017-Jun-21 21:00N 48°39' W 005°14'713.4
2017-Jun-21 20:30N 48°34' W 005°20'612.8
2017-Jun-21 20:00N 48°28' W 005°25'612.6
2017-Jun-21 19:30N 48°22' W 005°26'612.4
2017-Jun-21 19:00N 48°16' W 005°27'612.9
2017-Jun-21 18:30N 48°09' W 005°26'612.6
2017-Jun-21 18:00N 48°03' W 005°25'611.5
2017-Jun-21 17:30N 47°57' W 005°24'612.4
2017-Jun-21 17:00N 47°51' W 005°22'713.4
2017-Jun-21 16:30N 47°45' W 005°19'713.5
2017-Jun-21 16:00N 47°38' W 005°16'713.6
2017-Jun-21 15:30N 47°32' W 005°13'713.4
2017-Jun-21 15:00N 47°26' W 005°09'1413.9
2017-Jun-21 14:01N 47°13' W 005°02'714.1
2017-Jun-21 13:31N 47°06' W 004°59'713.9
2017-Jun-21 13:00N 46°59' W 004°55'713.6
2017-Jun-21 12:30N 46°53' W 004°52'713.7
2017-Jun-21 12:00N 46°46' W 004°49'714.2
2017-Jun-21 11:30N 46°40' W 004°45'713.8
2017-Jun-21 11:00N 46°33' W 004°42'713.7
2017-Jun-21 10:31N 46°27' W 004°38'714.7
2017-Jun-21 10:01N 46°20' W 004°35'714.4
2017-Jun-21 09:31N 46°13' W 004°31'713.9
2017-Jun-21 09:01N 46°07' W 004°28'714.0
2017-Jun-21 08:31N 45°60' W 004°24'713.9
2017-Jun-21 08:00N 45°53' W 004°21'713.9
2017-Jun-21 07:30N 45°47' W 004°18'713.8
2017-Jun-21 07:00N 45°40' W 004°14'714.1
2017-Jun-21 06:31N 45°34' W 004°11'714.1
2017-Jun-21 06:01N 45°27' W 004°08'3195.2
2017-Jun-21 06:00N 45°24' W 004°06'4 7.5 1018.6 5.4 21.216.819.2
2017-Jun-21 05:30N 45°21' W 004°04'713.8
2017-Jun-21 05:01N 45°14' W 004°01'714.1
2017-Jun-21 04:30N 45°07' W 003°58'713.9
2017-Jun-21 04:01N 45°01' W 003°54'714.0
2017-Jun-21 03:31N 44°54' W 003°51'714.2
2017-Jun-21 03:01N 44°48' W 003°48'713.9
2017-Jun-21 02:30N 44°41' W 003°44'713.9
2017-Jun-21 02:01N 44°35' W 003°40'713.6
2017-Jun-21 01:31N 44°29' W 003°36'713.6
2017-Jun-21 01:01N 44°22' W 003°33'713.9
2017-Jun-21 00:31N 44°15' W 003°31'713.8
2017-Jun-21 00:00N 44°09' W 003°28'713.7
2017-Jun-20 23:30N 44°02' W 003°25'713.7
2017-Jun-20 23:01N 43°56' W 003°22'714.0
2017-Jun-20 22:30N 43°49' W 003°18'713.7
2017-Jun-20 22:00N 43°43' W 003°15'714.0
2017-Jun-20 21:30N 43°36' W 003°12'713.9
2017-Jun-20 21:00N 43°30' W 003°08'612.9
2017-Jun-20 20:30N 43°24' W 003°05'32 1.8
2017-Jun-20 02:13N 43°55' W 002°57'414.5
2017-Jun-20 01:56N 43°59' W 002°55'714.5
2017-Jun-20 01:27N 44°05' W 002°51'614.4
2017-Jun-20 01:00N 44°11' W 002°47'714.6
2017-Jun-20 00:31N 44°18' W 002°43'714.6
2017-Jun-20 00:01N 44°25' W 002°39'1014.5
2017-Jun-19 23:20N 44°34' W 002°34'514.3
2017-Jun-19 23:00N 44°38' W 002°31'713.8
2017-Jun-19 22:30N 44°45' W 002°28'713.7
2017-Jun-19 22:00N 44°51' W 002°24'713.8
2017-Jun-19 21:30N 44°57' W 002°20'714.1
2017-Jun-19 21:01N 45°04' W 002°16'913.8
2017-Jun-19 20:22N 45°12' W 002°11'913.7
2017-Jun-19 19:45N 45°20' W 002°07'613.8
2017-Jun-19 19:21N 45°25' W 002°04'513.8
2017-Jun-19 19:00N 45°29' W 002°01'713.7
2017-Jun-19 18:31N 45°35' W 001°57'713.9
2017-Jun-19 18:01N 45°42' W 001°54'813.7
2017-Jun-19 17:27N 45°49' W 001°49'614.1
2017-Jun-19 17:00N 45°55' W 001°46'674282.6
2017-Jun-19 17:00N 44°48' W 001°48'73150.9 1016.810.8
2017-Jun-19 16:30N 46°01' W 001°42'713.8
2017-Jun-19 16:00N 46°07' W 001°37'714.3
2017-Jun-19 15:30N 46°07' W 001°26'714.1
2017-Jun-19 15:00N 46°06' W 001°16'4 3.7
2017-Jun-19 13:58N 46°10' W 001°14'0 0.0
2017-Jun-19 13:28N 46°10' W 001°14'0 0.0
2017-Jun-19 12:55N 46°10' W 001°14'0 0.0
2017-Jun-19 12:28N 46°10' W 001°14'0 0.0
2017-Jun-19 11:58N 46°10' W 001°14'0 0.0
2017-Jun-19 11:25N 46°10' W 001°14'0 0.0
2017-Jun-19 10:58N 46°10' W 001°14'0 0.0
2017-Jun-19 10:28N 46°10' W 001°14'0 0.0
2017-Jun-19 09:58N 46°10' W 001°14'0 0.0
2017-Jun-19 09:28N 46°10' W 001°14'0 0.0
2017-Jun-19 08:58N 46°10' W 001°14'0 0.0
2017-Jun-19 08:28N 46°10' W 001°14'0 0.0
2017-Jun-19 07:58N 46°10' W 001°14'0 0.0
2017-Jun-19 07:28N 46°10' W 001°14'0 0.0
2017-Jun-19 06:58N 46°10' W 001°14'0 0.0
2017-Jun-19 06:28N 46°10' W 001°14'0 0.0
2017-Jun-19 05:58N 46°10' W 001°14'0 0.0
2017-Jun-19 05:28N 46°10' W 001°14'0 0.6
2017-Jun-19 05:00N 46°09' W 001°15'4 7.7
2017-Jun-19 04:30N 46°06' W 001°18'612.4
2017-Jun-19 04:00N 46°07' W 001°26'713.2
2017-Jun-19 03:30N 46°07' W 001°36'713.6
2017-Jun-19 03:00N 46°09' W 001°45'714.1
2017-Jun-19 02:30N 46°13' W 001°54'714.1
2017-Jun-19 02:00N 46°17' W 002°03'714.1
2017-Jun-19 01:30N 46°21' W 002°11'714.2
2017-Jun-19 01:00N 46°24' W 002°20'714.3
2017-Jun-19 00:30N 46°28' W 002°29'714.2
2017-Jun-19 00:00N 46°32' W 002°38'714.4
2017-Jun-18 23:30N 46°36' W 002°46'714.5
2017-Jun-18 23:00N 46°40' W 002°55'714.3
2017-Jun-18 22:30N 46°44' W 003°03'714.0
2017-Jun-18 22:00N 46°48' W 003°12'714.1
2017-Jun-18 21:30N 46°52' W 003°20'714.5
2017-Jun-18 21:00N 46°58' W 003°27'714.7
2017-Jun-18 20:30N 47°02' W 003°36'714.4
2017-Jun-18 20:00N 47°06' W 003°45'814.4
2017-Jun-18 19:29N 47°11' W 003°53'714.4
2017-Jun-18 19:00N 47°15' W 004°01'714.4
2017-Jun-18 18:30N 47°19' W 004°10'1613.9
2017-Jun-18 17:20N 47°29' W 004°29'514.1
2017-Jun-18 17:00N 47°32' W 004°34'814.0
2017-Jun-18 16:28N 47°37' W 004°43'613.9
2017-Jun-18 16:00N 47°40' W 004°51'714.1
2017-Jun-18 15:30N 47°45' W 004°59'714.6
2017-Jun-18 15:01N 47°49' W 005°08'1413.7
2017-Jun-18 14:00N 47°59' W 005°22'715.3
2017-Jun-18 13:30N 48°07' W 005°24'1615.1
2017-Jun-18 12:26N 48°23' W 005°29'613.9
2017-Jun-18 12:00N 48°28' W 005°28'714.0
2017-Jun-18 11:30N 48°34' W 005°21'713.5
2017-Jun-18 11:01N 48°39' W 005°14'612.9
2017-Jun-18 10:30N 48°43' W 005°08'612.5
2017-Jun-18 10:00N 48°48' W 005°01'612.7
2017-Jun-18 09:30N 48°51' W 004°53'612.7
2017-Jun-18 09:00N 48°55' W 004°45'712.9
2017-Jun-18 08:30N 48°59' W 004°37'713.1
2017-Jun-18 08:00N 49°03' W 004°29'713.4
2017-Jun-18 07:29N 49°08' W 004°22'713.6
2017-Jun-18 06:59N 49°12' W 004°14'814.1
2017-Jun-18 06:26N 49°17' W 004°04'715.5
2017-Jun-18 06:00N 49°18' W 003°54'526.9 090 / 201026.810.8 18.012.715.2
2017-Jun-18 05:48N 49°23' W 003°54'614.5
2017-Jun-18 05:23N 49°27' W 003°47'614.7
2017-Jun-18 04:59N 49°31' W 003°41'814.7
2017-Jun-18 04:26N 49°38' W 003°33'614.4
2017-Jun-18 04:00N 49°42' W 003°27'713.9
2017-Jun-18 03:30N 49°46' W 003°18'713.8
2017-Jun-18 03:00N 49°50' W 003°09'713.5
2017-Jun-18 02:30N 49°55' W 003°02'713.1
2017-Jun-18 02:00N 49°59' W 002°53'713.1
2017-Jun-18 01:30N 50°01' W 002°43'612.8
2017-Jun-18 01:00N 50°03' W 002°34'612.7
2017-Jun-18 00:30N 50°04' W 002°25'612.5
2017-Jun-18 00:00N 50°08' W 002°17'612.8
2017-Jun-17 23:30N 50°12' W 002°09'713.1
2017-Jun-17 23:00N 50°15' W 001°60'713.5
2017-Jun-17 22:30N 50°18' W 001°50'713.7
2017-Jun-17 22:00N 50°21' W 001°41'713.8
2017-Jun-17 21:30N 50°24' W 001°31'714.3
2017-Jun-17 21:00N 50°26' W 001°20'714.6
2017-Jun-17 20:30N 50°29' W 001°10'714.0
2017-Jun-17 20:00N 50°33' W 001°01'713.9
2017-Jun-17 19:30N 50°40' W 000°58'511.0
2017-Jun-17 19:00N 50°44' W 001°04'714.7
2017-Jun-17 18:30N 50°46' W 001°15'4 9.0
2017-Jun-17 18:00N 50°50' W 001°19'4 8.8
2017-Jun-17 17:30N 50°53' W 001°24'0 1.0
2017-Jun-17 17:00N 50°53' W 001°24'0 0.0
2017-Jun-17 16:30N 50°53' W 001°24'0 0.0
2017-Jun-17 16:00N 50°53' W 001°24'0 0.0
2017-Jun-17 15:30N 50°53' W 001°24'0 0.0
2017-Jun-17 15:00N 50°53' W 001°24'0 0.0
2017-Jun-17 14:00N 50°53' W 001°24'0 0.0
2017-Jun-17 13:30N 50°53' W 001°24'0 0.0
2017-Jun-17 13:00N 50°53' W 001°24'0 0.0
2017-Jun-17 12:30N 50°53' W 001°24'0 0.0
2017-Jun-17 12:00N 50°53' W 001°24'0 0.0
2017-Jun-17 11:30N 50°53' W 001°24'0 0.0
2017-Jun-17 11:00N 50°53' W 001°24'0 0.0
2017-Jun-17 10:30N 50°53' W 001°24'0 0.0
2017-Jun-17 10:00N 50°53' W 001°24'0 0.0
2017-Jun-17 09:30N 50°53' W 001°24'0 0.0
2017-Jun-17 09:00N 50°53' W 001°24'0 0.0
2017-Jun-17 08:30N 50°53' W 001°24'0 0.0
2017-Jun-17 08:00N 50°53' W 001°24'0 0.0
2017-Jun-17 07:30N 50°53' W 001°24'0 0.0
2017-Jun-17 07:00N 50°53' W 001°24'0 0.0
2017-Jun-17 06:30N 50°53' W 001°24'0 0.0
2017-Jun-17 06:00N 50°53' W 001°24'0 0.0
2017-Jun-17 05:30N 50°53' W 001°24'0 0.0
2017-Jun-17 05:00N 50°53' W 001°24'0 1.0
2017-Jun-17 04:30N 50°53' W 001°24'4 8.3
2017-Jun-17 04:00N 50°50' W 001°19'4 7.7
2017-Jun-17 03:30N 50°47' W 001°17'816.3
2017-Jun-17 03:01N 50°44' W 001°04'611.2
2017-Jun-17 02:30N 50°40' W 000°59'713.9
2017-Jun-17 02:00N 50°33' W 001°01'1020.9
2017-Jun-17 01:30N 50°28' W 001°15'1121.1
2017-Jun-17 01:01N 50°25' W 001°31'1121.1
2017-Jun-17 00:30N 50°22' W 001°47'1121.2
2017-Jun-17 00:00N 50°17' W 002°02'918.6
2017-Jun-16 23:30N 50°09' W 002°08'1019.5
2017-Jun-16 23:01N 49°59' W 002°12'1020.3
2017-Jun-16 22:30N 49°56' W 002°26'1020.0
2017-Jun-16 22:00N 49°53' W 002°41'1019.5
2017-Jun-16 21:30N 49°50' W 002°56'1019.2
2017-Jun-16 21:00N 49°44' W 003°07'1019.0
2017-Jun-16 20:31N 49°38' W 003°19'1019.1
2017-Jun-16 20:00N 49°33' W 003°31'1019.0
2017-Jun-16 19:30N 49°27' W 003°43'918.8
2017-Jun-16 19:00N 49°21' W 003°54'918.6
2017-Jun-16 18:30N 49°16' W 004°06'918.5
2017-Jun-16 18:00N 49°10' W 004°17'918.3
2017-Jun-16 17:30N 49°05' W 004°28'918.1
2017-Jun-16 17:00N 48°59' W 004°39'2154.0
2017-Jun-16 17:00N 49°00' W 004°36'1123.1 310 / 16 10.8 15.813.515.7
2017-Jun-16 16:30N 48°54' W 004°50'917.8
2017-Jun-16 16:00N 48°48' W 005°01'917.5
2017-Jun-16 15:30N 48°42' W 005°10'817.1
2017-Jun-16 15:00N 48°35' W 005°18'918.2
2017-Jun-16 14:30N 48°28' W 005°27'1918.7
2017-Jun-16 13:30N 48°12' W 005°41'1018.5
2017-Jun-16 12:59N 48°04' W 005°48'918.5
2017-Jun-16 12:30N 47°56' W 005°55'918.4
2017-Jun-16 12:01N 47°48' W 006°02'1018.3
2017-Jun-16 11:29N 47°40' W 006°09'1218.4
2017-Jun-16 10:50N 47°29' W 006°18'618.4
2017-Jun-16 10:30N 47°24' W 006°22'1019.1
2017-Jun-16 10:00N 47°16' W 006°29'1118.8
2017-Jun-16 09:25N 47°06' W 006°37'819.1
2017-Jun-16 09:00N 46°60' W 006°43'31119.4
2017-Jun-15 17:00N 42°18' W 009°48'7218.0 010 / 301021.710.8 17.514.917.5
2017-Jun-15 13:00N 41°06' W 009°48'4620.3 350 / 311018.8 5.4 18.015.518.0
2017-Jun-15 10:44N 40°20' W 009°50'419.1
2017-Jun-15 10:31N 40°16' W 009°50'1019.0
2017-Jun-15 10:00N 40°06' W 009°50'1019.7
2017-Jun-15 09:31N 39°57' W 009°51'1019.6
2017-Jun-15 09:00N 39°47' W 009°51'1019.1
2017-Jun-15 08:30N 39°37' W 009°51'919.0
2017-Jun-15 08:00N 39°28' W 009°52'1019.4
2017-Jun-15 07:30N 39°18' W 009°51'1019.6
2017-Jun-15 07:00N 39°08' W 009°51'1019.3
2017-Jun-15 06:31N 38°59' W 009°51'1019.6
2017-Jun-15 06:00N 38°49' W 009°51'1019.3
2017-Jun-15 05:30N 38°39' W 009°50'1019.3
2017-Jun-15 05:01N 38°30' W 009°48'1019.1
2017-Jun-15 04:30N 38°20' W 009°46'918.8
2017-Jun-15 04:00N 38°11' W 009°43'918.8
2017-Jun-15 03:30N 38°02' W 009°40'918.2
2017-Jun-15 03:00N 37°53' W 009°37'918.2
2017-Jun-15 02:30N 37°44' W 009°34'1018.7
2017-Jun-15 01:58N 37°35' W 009°30'1418.5
2017-Jun-15 01:13N 37°21' W 009°26'1119.0
2017-Jun-15 00:39N 37°11' W 009°24'618.9
2017-Jun-15 00:19N 37°05' W 009°22'619.4
2017-Jun-15 00:00N 36°59' W 009°21'1519.1
2017-Jun-14 23:14N 36°47' W 009°10'718.9
2017-Jun-14 22:51N 36°43' W 009°02'819.4
2017-Jun-14 22:27N 36°41' W 008°53'919.1
2017-Jun-14 22:00N 36°38' W 008°43'919.1
2017-Jun-14 21:31N 36°35' W 008°32'1019.4
2017-Jun-14 21:00N 36°32' W 008°20'919.0
2017-Jun-14 20:30N 36°30' W 008°09'919.0
2017-Jun-14 20:00N 36°27' W 007°57'1019.2
2017-Jun-14 19:30N 36°23' W 007°47'1019.1
2017-Jun-14 19:00N 36°20' W 007°35'1019.2
2017-Jun-14 18:30N 36°17' W 007°24'1319.8
2017-Jun-14 17:51N 36°13' W 007°09'719.5
2017-Jun-14 17:30N 36°11' W 007°01'1019.2
2017-Jun-14 17:00N 36°08' W 006°49'2462.7
2017-Jun-14 17:00N 36°06' W 006°48'1017.1 290 / 171017.010.8 22.017.221.8
2017-Jun-14 16:24N 36°04' W 006°36'4718.7
2017-Jun-14 13:52N 35°58' W 005°38'615.2
2017-Jun-14 13:30N 35°59' W 005°31'612.1
2017-Jun-14 13:00N 36°02' W 005°24'714.2
2017-Jun-14 12:30N 36°09' W 005°22'0 0.1
2017-Jun-14 05:34N 36°09' W 005°22'0 1.3
2017-Jun-14 05:29N 36°09' W 005°22'3 6.9
2017-Jun-14 05:01N 36°05' W 005°22'713.5
2017-Jun-14 04:30N 36°06' W 005°13'1120.0
2017-Jun-14 03:58N 36°12' W 005°02'14119.6
2017-Jun-13 20:45N 36°27' W 002°08'619.6
2017-Jun-13 20:28N 36°30' W 002°01'2819.1
2017-Jun-13 19:01N 36°50' W 001°38'120.5
2017-Jun-13 18:59N 36°50' W 001°37'  

Dump ship's entire track history